Archival Weather

Abadan

Abadan, Iran (OIAA)

Report from: Thursday, September 21, 2023 6:00 AM UTC
Current time: Saturday, March 2, 2024 9:47 AM UTC

Current weather – Weather history – Daily summaries
Weather forecast

Temperature33.0°C (91.4°F)
Heat index30.9°C (87.7°F)
Dew point7.0°C (44.6°F)
Winds 6 kts (3.1 m/s, 6.9 mph) North-Northwest (330°)
Visibility4.3 mi. (7 km)
Altimeter29.71 in.Hg (1006 mB)
Relative humidity20 %
Density altitude2,441 ft. (744 m)
Flight conditions Marginal Visual Meteorological Conditions
Raw dataOIAA 210600Z 33006KT 7000 NSC 33/07 Q1006
An error has occurred. This application may no longer respond until reloaded. Reload 🗙